SBCT Airport Information

Runway Information
Runway 11 Length 5906 ft width 148 ft
Elevation 0 ft Threshold 0 ft Heading 0
Runway 29 Length 5906 ft Width 148 ft
Elevation 0 ft Threshold 0 ft Heading 0
Runway 15 Length 7267 ft width 148 ft
Elevation 0 ft Threshold 0 ft Heading 0
Runway 33 Length 7267 ft Width 148 ft
Elevation 0 ft Threshold 0 ft Heading 0
Airport Frequencies
Type APP Name CURITIBA A Frequency 119.95 MHZ
Type ATIS Name ATIS Frequency 127.8 MHZ
Type GND Name GND Frequency 121.9 MHZ
Type TWR Name CURITIBA T Frequency 118.55 MHZ
Airport Navaids
Type NDB Name Curitiba Frequency 390 KHZ
Type VOR-DME Name Curitiba Frequency 116500 KHZ
Type NDB Name Pinhais Frequency 255 KHZ
Airport Weather Information & NOTAM
ADDS - METARS form results

(0810 UTC 22 May 2018)
 
METAR text: SBCT 220800Z 00000KT 6000 2000SE FEW001 04/03 Q1020
Conditions at: SBCT (CURITIBA/AFONSO , BR) observed 0800 UTC 22 May 2018
Temperature: 4.0°C (39°F)
Dewpoint: 3.0°C (37°F) [RH = 93%]
Pressure (altimeter): 30.12 inches Hg (1020.0 mb)
Winds: calm
Visibility: 4 miles (6 km)
Ceiling: at least 12,000 feet AGL
Clouds: few clouds at 100 feet AGL
Weather: no significant weather observed at this time